sensor_id;sensor_type;location;lat;lon;timestamp;P1;durP1;ratioP1;P2;durP2;ratioP2
18076;SDS011;9165;45.714;11.362;2022-11-03T00:01:54;26.17;;;14.20;;
18076;SDS011;9165;45.714;11.362;2022-11-03T00:04:21;29.43;;;14.23;;
18076;SDS011;9165;45.714;11.362;2022-11-03T00:06:48;26.53;;;15.67;;
18076;SDS011;9165;45.714;11.362;2022-11-03T00:09:15;32.37;;;14.50;;
18076;SDS011;9165;45.714;11.362;2022-11-03T00:11:43;27.70;;;14.10;;
18076;SDS011;9165;45.714;11.362;2022-11-03T00:14:11;23.93;;;14.87;;
18076;SDS011;9165;45.714;11.362;2022-11-03T00:16:40;31.73;;;14.47;;
18076;SDS011;9165;45.714;11.362;2022-11-03T00:19:07;33.10;;;14.63;;
18076;SDS011;9165;45.714;11.362;2022-11-03T00:21:33;24.07;;;14.77;;
18076;SDS011;9165;45.714;11.362;2022-11-03T00:24:00;27.13;;;14.27;;
18076;SDS011;9165;45.714;11.362;2022-11-03T00:26:27;27.30;;;14.57;;
18076;SDS011;9165;45.714;11.362;2022-11-03T00:28:55;26.13;;;15.40;;
18076;SDS011;9165;45.714;11.362;2022-11-03T00:31:22;21.20;;;14.20;;
18076;SDS011;9165;45.714;11.362;2022-11-03T00:33:50;31.83;;;14.00;;
18076;SDS011;9165;45.714;11.362;2022-11-03T00:36:17;32.87;;;15.07;;
18076;SDS011;9165;45.714;11.362;2022-11-03T00:38:44;22.87;;;14.00;;
18076;SDS011;9165;45.714;11.362;2022-11-03T00:41:11;22.87;;;13.70;;
18076;SDS011;9165;45.714;11.362;2022-11-03T00:43:39;24.03;;;13.40;;
18076;SDS011;9165;45.714;11.362;2022-11-03T00:46:06;24.47;;;13.50;;
18076;SDS011;9165;45.714;11.362;2022-11-03T00:48:34;26.43;;;13.50;;
18076;SDS011;9165;45.714;11.362;2022-11-03T00:51:02;25.57;;;13.93;;
18076;SDS011;9165;45.714;11.362;2022-11-03T00:53:30;26.17;;;13.53;;
18076;SDS011;9165;45.714;11.362;2022-11-03T00:55:58;24.93;;;13.90;;
18076;SDS011;9165;45.714;11.362;2022-11-03T00:58:24;22.93;;;13.20;;
18076;SDS011;9165;45.714;11.362;2022-11-03T01:00:57;29.13;;;14.23;;
18076;SDS011;9165;45.714;11.362;2022-11-03T01:03:23;23.57;;;13.53;;
18076;SDS011;9165;45.714;11.362;2022-11-03T01:05:50;26.10;;;13.77;;
18076;SDS011;9165;45.714;11.362;2022-11-03T01:08:35;24.30;;;13.50;;
18076;SDS011;9165;45.714;11.362;2022-11-03T01:11:06;30.60;;;13.87;;
18076;SDS011;9165;45.714;11.362;2022-11-03T01:13:50;21.10;;;12.67;;
18076;SDS011;9165;45.714;11.362;2022-11-03T01:16:16;26.43;;;13.53;;
18076;SDS011;9165;45.714;11.362;2022-11-03T01:18:43;27.17;;;13.17;;
18076;SDS011;9165;45.714;11.362;2022-11-03T01:21:09;22.03;;;12.70;;
18076;SDS011;9165;45.714;11.362;2022-11-03T01:23:37;20.47;;;13.87;;
18076;SDS011;9165;45.714;11.362;2022-11-03T01:26:04;22.27;;;14.10;;
18076;SDS011;9165;45.714;11.362;2022-11-03T01:28:32;29.33;;;14.03;;
18076;SDS011;9165;45.714;11.362;2022-11-03T01:31:01;25.87;;;13.33;;
18076;SDS011;9165;45.714;11.362;2022-11-03T01:33:28;23.17;;;12.77;;
18076;SDS011;9165;45.714;11.362;2022-11-03T01:35:55;21.80;;;12.43;;
18076;SDS011;9165;45.714;11.362;2022-11-03T01:38:22;28.97;;;13.30;;
18076;SDS011;9165;45.714;11.362;2022-11-03T01:40:50;22.07;;;12.63;;
18076;SDS011;9165;45.714;11.362;2022-11-03T01:43:16;24.87;;;14.10;;
18076;SDS011;9165;45.714;11.362;2022-11-03T01:45:43;25.00;;;14.00;;
18076;SDS011;9165;45.714;11.362;2022-11-03T01:48:10;24.20;;;12.73;;
18076;SDS011;9165;45.714;11.362;2022-11-03T01:50:37;27.63;;;13.80;;
18076;SDS011;9165;45.714;11.362;2022-11-03T01:53:04;22.27;;;12.73;;
18076;SDS011;9165;45.714;11.362;2022-11-03T01:55:31;25.20;;;13.40;;
18076;SDS011;9165;45.714;11.362;2022-11-03T01:58:02;25.50;;;14.07;;
18076;SDS011;9165;45.714;11.362;2022-11-03T02:00:31;27.17;;;14.13;;
18076;SDS011;9165;45.714;11.362;2022-11-03T02:02:57;28.73;;;14.03;;
18076;SDS011;9165;45.714;11.362;2022-11-03T02:05:24;23.53;;;12.93;;
18076;SDS011;9165;45.714;11.362;2022-11-03T02:07:52;26.43;;;13.93;;
18076;SDS011;9165;45.714;11.362;2022-11-03T02:10:21;24.33;;;13.40;;
18076;SDS011;9165;45.714;11.362;2022-11-03T02:12:48;24.90;;;13.67;;
18076;SDS011;9165;45.714;11.362;2022-11-03T02:15:16;23.17;;;13.70;;
18076;SDS011;9165;45.714;11.362;2022-11-03T02:17:44;24.03;;;12.60;;
18076;SDS011;9165;45.714;11.362;2022-11-03T02:20:12;20.53;;;12.20;;
18076;SDS011;9165;45.714;11.362;2022-11-03T02:25:39;29.03;;;14.50;;
18076;SDS011;9165;45.714;11.362;2022-11-03T02:28:06;24.07;;;12.67;;
18076;SDS011;9165;45.714;11.362;2022-11-03T02:30:33;26.53;;;13.90;;
18076;SDS011;9165;45.714;11.362;2022-11-03T02:33:02;28.73;;;14.17;;
18076;SDS011;9165;45.714;11.362;2022-11-03T02:35:32;22.17;;;13.40;;
18076;SDS011;9165;45.714;11.362;2022-11-03T02:38:03;26.40;;;13.33;;
18076;SDS011;9165;45.714;11.362;2022-11-03T02:40:32;24.57;;;13.00;;
18076;SDS011;9165;45.714;11.362;2022-11-03T02:43:01;25.83;;;14.43;;
18076;SDS011;9165;45.714;11.362;2022-11-03T02:45:29;24.50;;;13.60;;
18076;SDS011;9165;45.714;11.362;2022-11-03T02:47:57;31.77;;;13.73;;
18076;SDS011;9165;45.714;11.362;2022-11-03T02:50:27;28.10;;;14.50;;
18076;SDS011;9165;45.714;11.362;2022-11-03T02:52:54;26.03;;;13.57;;
18076;SDS011;9165;45.714;11.362;2022-11-03T02:55:24;21.27;;;13.27;;
18076;SDS011;9165;45.714;11.362;2022-11-03T02:57:54;28.30;;;14.30;;
18076;SDS011;9165;45.714;11.362;2022-11-03T03:00:23;34.27;;;14.23;;
18076;SDS011;9165;45.714;11.362;2022-11-03T03:02:51;26.17;;;13.83;;
18076;SDS011;9165;45.714;11.362;2022-11-03T03:05:21;24.43;;;12.83;;
18076;SDS011;9165;45.714;11.362;2022-11-03T03:07:49;29.13;;;14.40;;
18076;SDS011;9165;45.714;11.362;2022-11-03T03:10:17;20.67;;;13.47;;
18076;SDS011;9165;45.714;11.362;2022-11-03T03:12:45;21.10;;;13.13;;
18076;SDS011;9165;45.714;11.362;2022-11-03T03:15:13;26.83;;;14.07;;
18076;SDS011;9165;45.714;11.362;2022-11-03T03:17:43;21.47;;;13.33;;
18076;SDS011;9165;45.714;11.362;2022-11-03T03:20:10;26.80;;;13.90;;
18076;SDS011;9165;45.714;11.362;2022-11-03T03:22:48;23.43;;;13.13;;
18076;SDS011;9165;45.714;11.362;2022-11-03T03:25:17;28.90;;;14.13;;
18076;SDS011;9165;45.714;11.362;2022-11-03T03:27:47;24.37;;;12.93;;
18076;SDS011;9165;45.714;11.362;2022-11-03T03:30:15;26.07;;;13.83;;
18076;SDS011;9165;45.714;11.362;2022-11-03T03:32:46;26.17;;;13.37;;
18076;SDS011;9165;45.714;11.362;2022-11-03T03:35:13;28.40;;;13.93;;
18076;SDS011;9165;45.714;11.362;2022-11-03T03:37:42;25.43;;;13.33;;
18076;SDS011;9165;45.714;11.362;2022-11-03T03:40:10;26.43;;;12.43;;
18076;SDS011;9165;45.714;11.362;2022-11-03T03:42:38;25.83;;;13.33;;
18076;SDS011;9165;45.714;11.362;2022-11-03T03:45:06;24.97;;;13.80;;
18076;SDS011;9165;45.714;11.362;2022-11-03T03:47:33;21.27;;;13.20;;
18076;SDS011;9165;45.714;11.362;2022-11-03T03:50:02;29.53;;;13.60;;
18076;SDS011;9165;45.714;11.362;2022-11-03T03:52:28;21.87;;;13.20;;
18076;SDS011;9165;45.714;11.362;2022-11-03T03:54:55;26.33;;;14.23;;
18076;SDS011;9165;45.714;11.362;2022-11-03T03:57:22;26.13;;;13.70;;
18076;SDS011;9165;45.714;11.362;2022-11-03T03:59:49;22.83;;;13.67;;
18076;SDS011;9165;45.714;11.362;2022-11-03T04:02:16;24.23;;;13.33;;
18076;SDS011;9165;45.714;11.362;2022-11-03T04:04:42;24.10;;;14.07;;
18076;SDS011;9165;45.714;11.362;2022-11-03T04:07:10;22.90;;;13.47;;
18076;SDS011;9165;45.714;11.362;2022-11-03T04:09:54;28.80;;;14.57;;
18076;SDS011;9165;45.714;11.362;2022-11-03T04:12:21;25.37;;;13.97;;
18076;SDS011;9165;45.714;11.362;2022-11-03T04:15:05;30.00;;;14.30;;
18076;SDS011;9165;45.714;11.362;2022-11-03T04:17:54;34.37;;;14.60;;
18076;SDS011;9165;45.714;11.362;2022-11-03T04:20:38;25.73;;;14.23;;
18076;SDS011;9165;45.714;11.362;2022-11-03T04:23:23;28.40;;;14.13;;
18076;SDS011;9165;45.714;11.362;2022-11-03T04:25:52;28.33;;;12.93;;
18076;SDS011;9165;45.714;11.362;2022-11-03T04:28:19;24.00;;;13.87;;
18076;SDS011;9165;45.714;11.362;2022-11-03T04:30:46;28.73;;;14.23;;
18076;SDS011;9165;45.714;11.362;2022-11-03T04:33:13;27.43;;;14.97;;
18076;SDS011;9165;45.714;11.362;2022-11-03T04:35:40;30.17;;;15.60;;
18076;SDS011;9165;45.714;11.362;2022-11-03T04:38:17;35.17;;;15.07;;
18076;SDS011;9165;45.714;11.362;2022-11-03T04:40:47;29.80;;;15.07;;
18076;SDS011;9165;45.714;11.362;2022-11-03T04:43:15;23.87;;;14.33;;
18076;SDS011;9165;45.714;11.362;2022-11-03T04:45:43;25.33;;;14.60;;
18076;SDS011;9165;45.714;11.362;2022-11-03T04:48:10;24.23;;;14.07;;
18076;SDS011;9165;45.714;11.362;2022-11-03T04:50:37;25.23;;;13.80;;
18076;SDS011;9165;45.714;11.362;2022-11-03T04:53:07;28.17;;;15.37;;
18076;SDS011;9165;45.714;11.362;2022-11-03T04:55:47;28.63;;;14.93;;
18076;SDS011;9165;45.714;11.362;2022-11-03T04:58:16;28.77;;;15.60;;
18076;SDS011;9165;45.714;11.362;2022-11-03T05:00:43;27.63;;;15.13;;
18076;SDS011;9165;45.714;11.362;2022-11-03T05:03:11;31.67;;;13.70;;
18076;SDS011;9165;45.714;11.362;2022-11-03T05:05:40;25.97;;;13.93;;
18076;SDS011;9165;45.714;11.362;2022-11-03T05:08:07;29.97;;;15.03;;
18076;SDS011;9165;45.714;11.362;2022-11-03T05:10:33;28.57;;;14.33;;
18076;SDS011;9165;45.714;11.362;2022-11-03T05:13:02;26.73;;;14.03;;
18076;SDS011;9165;45.714;11.362;2022-11-03T05:15:29;32.90;;;16.50;;
18076;SDS011;9165;45.714;11.362;2022-11-03T05:17:57;30.30;;;15.10;;
18076;SDS011;9165;45.714;11.362;2022-11-03T05:20:30;32.27;;;15.57;;
18076;SDS011;9165;45.714;11.362;2022-11-03T05:22:57;33.40;;;16.33;;
18076;SDS011;9165;45.714;11.362;2022-11-03T05:25:31;31.10;;;15.13;;
18076;SDS011;9165;45.714;11.362;2022-11-03T05:27:59;31.80;;;16.13;;
18076;SDS011;9165;45.714;11.362;2022-11-03T05:30:27;33.07;;;15.83;;
18076;SDS011;9165;45.714;11.362;2022-11-03T05:32:54;28.17;;;14.37;;
18076;SDS011;9165;45.714;11.362;2022-11-03T05:35:21;34.67;;;15.90;;
18076;SDS011;9165;45.714;11.362;2022-11-03T05:37:48;32.00;;;16.73;;
18076;SDS011;9165;45.714;11.362;2022-11-03T05:40:15;31.27;;;15.13;;
18076;SDS011;9165;45.714;11.362;2022-11-03T05:42:45;37.80;;;16.30;;
18076;SDS011;9165;45.714;11.362;2022-11-03T05:45:14;33.73;;;15.67;;
18076;SDS011;9165;45.714;11.362;2022-11-03T05:47:43;30.37;;;14.83;;
18076;SDS011;9165;45.714;11.362;2022-11-03T05:50:13;36.93;;;16.90;;
18076;SDS011;9165;45.714;11.362;2022-11-03T05:52:42;35.00;;;16.00;;
18076;SDS011;9165;45.714;11.362;2022-11-03T05:55:13;31.40;;;15.80;;
18076;SDS011;9165;45.714;11.362;2022-11-03T05:57:43;31.10;;;14.83;;
18076;SDS011;9165;45.714;11.362;2022-11-03T06:00:18;30.53;;;15.13;;
18076;SDS011;9165;45.714;11.362;2022-11-03T06:02:48;32.33;;;15.33;;
18076;SDS011;9165;45.714;11.362;2022-11-03T06:05:17;32.20;;;18.13;;
18076;SDS011;9165;45.714;11.362;2022-11-03T06:07:44;41.37;;;16.73;;
18076;SDS011;9165;45.714;11.362;2022-11-03T06:10:20;30.53;;;16.00;;
18076;SDS011;9165;45.714;11.362;2022-11-03T06:12:48;30.87;;;16.63;;
18076;SDS011;9165;45.714;11.362;2022-11-03T06:15:21;25.40;;;15.60;;
18076;SDS011;9165;45.714;11.362;2022-11-03T06:17:50;29.03;;;16.90;;
18076;SDS011;9165;45.714;11.362;2022-11-03T06:20:17;27.00;;;15.03;;
18076;SDS011;9165;45.714;11.362;2022-11-03T06:22:46;31.87;;;15.37;;
18076;SDS011;9165;45.714;11.362;2022-11-03T06:25:15;29.67;;;14.73;;
18076;SDS011;9165;45.714;11.362;2022-11-03T06:27:46;31.57;;;15.53;;
18076;SDS011;9165;45.714;11.362;2022-11-03T06:30:18;31.70;;;14.50;;
18076;SDS011;9165;45.714;11.362;2022-11-03T06:32:45;29.23;;;15.20;;
18076;SDS011;9165;45.714;11.362;2022-11-03T06:35:13;32.97;;;14.57;;
18076;SDS011;9165;45.714;11.362;2022-11-03T06:37:40;33.93;;;15.97;;
18076;SDS011;9165;45.714;11.362;2022-11-03T06:40:31;30.30;;;15.50;;
18076;SDS011;9165;45.714;11.362;2022-11-03T06:42:58;31.43;;;16.67;;
18076;SDS011;9165;45.714;11.362;2022-11-03T06:45:26;31.00;;;15.70;;
18076;SDS011;9165;45.714;11.362;2022-11-03T06:47:53;29.20;;;16.07;;
18076;SDS011;9165;45.714;11.362;2022-11-03T06:50:23;33.53;;;15.37;;
18076;SDS011;9165;45.714;11.362;2022-11-03T06:52:50;30.13;;;15.90;;
18076;SDS011;9165;45.714;11.362;2022-11-03T06:55:20;31.83;;;16.50;;
18076;SDS011;9165;45.714;11.362;2022-11-03T06:57:47;34.33;;;16.53;;
18076;SDS011;9165;45.714;11.362;2022-11-03T07:00:15;34.77;;;16.10;;
18076;SDS011;9165;45.714;11.362;2022-11-03T07:02:51;32.27;;;15.83;;
18076;SDS011;9165;45.714;11.362;2022-11-03T07:05:20;27.13;;;14.23;;
18076;SDS011;9165;45.714;11.362;2022-11-03T07:07:49;33.40;;;15.87;;
18076;SDS011;9165;45.714;11.362;2022-11-03T07:10:17;31.53;;;16.23;;
18076;SDS011;9165;45.714;11.362;2022-11-03T07:12:44;34.37;;;16.23;;
18076;SDS011;9165;45.714;11.362;2022-11-03T07:15:22;45.67;;;16.30;;
18076;SDS011;9165;45.714;11.362;2022-11-03T07:17:49;29.17;;;15.37;;
18076;SDS011;9165;45.714;11.362;2022-11-03T07:20:16;36.93;;;15.40;;
18076;SDS011;9165;45.714;11.362;2022-11-03T07:22:43;30.20;;;15.27;;
18076;SDS011;9165;45.714;11.362;2022-11-03T07:25:13;21.47;;;14.30;;
18076;SDS011;9165;45.714;11.362;2022-11-03T07:27:41;29.33;;;14.83;;
18076;SDS011;9165;45.714;11.362;2022-11-03T07:30:12;31.47;;;15.37;;
18076;SDS011;9165;45.714;11.362;2022-11-03T07:32:39;38.80;;;14.93;;
18076;SDS011;9165;45.714;11.362;2022-11-03T07:35:14;30.73;;;14.70;;
18076;SDS011;9165;45.714;11.362;2022-11-03T07:37:47;31.17;;;15.53;;
18076;SDS011;9165;45.714;11.362;2022-11-03T07:40:17;24.83;;;14.50;;
18076;SDS011;9165;45.714;11.362;2022-11-03T07:42:44;32.93;;;15.30;;
18076;SDS011;9165;45.714;11.362;2022-11-03T07:45:28;29.60;;;15.47;;
18076;SDS011;9165;45.714;11.362;2022-11-03T07:47:56;28.47;;;15.47;;
18076;SDS011;9165;45.714;11.362;2022-11-03T07:50:23;32.90;;;16.13;;
18076;SDS011;9165;45.714;11.362;2022-11-03T07:52:49;31.97;;;15.47;;
18076;SDS011;9165;45.714;11.362;2022-11-03T07:55:17;32.70;;;16.37;;
18076;SDS011;9165;45.714;11.362;2022-11-03T07:57:44;30.13;;;16.30;;
18076;SDS011;9165;45.714;11.362;2022-11-03T08:00:13;31.53;;;16.37;;
18076;SDS011;9165;45.714;11.362;2022-11-03T08:02:46;30.00;;;16.57;;
18076;SDS011;9165;45.714;11.362;2022-11-03T08:05:13;26.87;;;16.70;;
18076;SDS011;9165;45.714;11.362;2022-11-03T08:07:40;85.90;;;51.13;;
18076;SDS011;9165;45.714;11.362;2022-11-03T08:10:07;67.00;;;35.77;;
18076;SDS011;9165;45.714;11.362;2022-11-03T08:12:35;38.80;;;22.47;;
18076;SDS011;9165;45.714;11.362;2022-11-03T08:15:02;44.33;;;24.03;;
18076;SDS011;9165;45.714;11.362;2022-11-03T08:17:29;38.00;;;21.63;;
18076;SDS011;9165;45.714;11.362;2022-11-03T08:19:56;49.07;;;21.13;;
18076;SDS011;9165;45.714;11.362;2022-11-03T08:22:22;38.73;;;21.57;;
18076;SDS011;9165;45.714;11.362;2022-11-03T08:24:51;34.83;;;21.90;;
18076;SDS011;9165;45.714;11.362;2022-11-03T08:27:18;42.40;;;23.37;;
18076;SDS011;9165;45.714;11.362;2022-11-03T08:29:46;37.73;;;22.77;;
18076;SDS011;9165;45.714;11.362;2022-11-03T08:32:13;43.33;;;24.17;;
18076;SDS011;9165;45.714;11.362;2022-11-03T08:34:39;43.67;;;22.77;;
18076;SDS011;9165;45.714;11.362;2022-11-03T08:37:06;35.57;;;21.60;;
18076;SDS011;9165;45.714;11.362;2022-11-03T08:39:32;43.50;;;21.80;;
18076;SDS011;9165;45.714;11.362;2022-11-03T08:42:00;40.67;;;21.90;;
18076;SDS011;9165;45.714;11.362;2022-11-03T08:44:26;36.93;;;21.20;;
18076;SDS011;9165;45.714;11.362;2022-11-03T08:46:54;43.73;;;22.00;;
18076;SDS011;9165;45.714;11.362;2022-11-03T08:49:21;41.47;;;22.17;;
18076;SDS011;9165;45.714;11.362;2022-11-03T08:51:48;38.17;;;21.57;;
18076;SDS011;9165;45.714;11.362;2022-11-03T08:54:14;35.30;;;21.63;;
18076;SDS011;9165;45.714;11.362;2022-11-03T08:56:41;39.70;;;22.17;;
18076;SDS011;9165;45.714;11.362;2022-11-03T08:59:09;40.47;;;20.83;;
18076;SDS011;9165;45.714;11.362;2022-11-03T09:01:36;43.63;;;21.87;;
18076;SDS011;9165;45.714;11.362;2022-11-03T09:04:04;42.53;;;22.47;;
18076;SDS011;9165;45.714;11.362;2022-11-03T09:06:30;53.03;;;26.13;;
18076;SDS011;9165;45.714;11.362;2022-11-03T09:08:57;40.73;;;20.90;;
18076;SDS011;9165;45.714;11.362;2022-11-03T09:11:24;45.03;;;23.17;;
18076;SDS011;9165;45.714;11.362;2022-11-03T09:13:51;38.43;;;22.77;;
18076;SDS011;9165;45.714;11.362;2022-11-03T09:16:17;38.93;;;22.87;;
18076;SDS011;9165;45.714;11.362;2022-11-03T09:18:44;40.03;;;23.27;;
18076;SDS011;9165;45.714;11.362;2022-11-03T09:21:12;39.07;;;22.87;;
18076;SDS011;9165;45.714;11.362;2022-11-03T09:23:38;47.30;;;23.63;;
18076;SDS011;9165;45.714;11.362;2022-11-03T09:26:05;46.13;;;23.73;;
18076;SDS011;9165;45.714;11.362;2022-11-03T09:28:32;47.97;;;24.20;;
18076;SDS011;9165;45.714;11.362;2022-11-03T09:30:59;44.60;;;25.53;;
18076;SDS011;9165;45.714;11.362;2022-11-03T09:33:25;51.60;;;25.20;;
18076;SDS011;9165;45.714;11.362;2022-11-03T09:35:52;46.93;;;24.87;;
18076;SDS011;9165;45.714;11.362;2022-11-03T09:38:20;59.00;;;30.40;;
18076;SDS011;9165;45.714;11.362;2022-11-03T09:40:49;50.33;;;25.77;;
18076;SDS011;9165;45.714;11.362;2022-11-03T09:43:16;48.57;;;24.17;;
18076;SDS011;9165;45.714;11.362;2022-11-03T09:45:42;45.80;;;25.33;;
18076;SDS011;9165;45.714;11.362;2022-11-03T09:48:09;42.53;;;25.50;;
18076;SDS011;9165;45.714;11.362;2022-11-03T09:50:36;45.73;;;25.07;;
18076;SDS011;9165;45.714;11.362;2022-11-03T09:53:03;67.17;;;26.97;;
18076;SDS011;9165;45.714;11.362;2022-11-03T09:55:31;48.03;;;24.10;;
18076;SDS011;9165;45.714;11.362;2022-11-03T09:57:59;48.53;;;25.37;;
18076;SDS011;9165;45.714;11.362;2022-11-03T10:00:26;46.17;;;23.50;;
18076;SDS011;9165;45.714;11.362;2022-11-03T10:02:53;41.00;;;23.57;;
18076;SDS011;9165;45.714;11.362;2022-11-03T10:05:22;45.20;;;25.60;;
18076;SDS011;9165;45.714;11.362;2022-11-03T10:07:49;44.73;;;24.57;;
18076;SDS011;9165;45.714;11.362;2022-11-03T10:10:18;47.77;;;25.07;;
18076;SDS011;9165;45.714;11.362;2022-11-03T10:12:47;44.90;;;25.53;;
18076;SDS011;9165;45.714;11.362;2022-11-03T10:15:13;49.93;;;27.63;;
18076;SDS011;9165;45.714;11.362;2022-11-03T10:17:40;46.63;;;27.33;;
18076;SDS011;9165;45.714;11.362;2022-11-03T10:20:08;46.67;;;26.03;;
18076;SDS011;9165;45.714;11.362;2022-11-03T10:22:35;45.20;;;26.23;;
18076;SDS011;9165;45.714;11.362;2022-11-03T10:27:49;52.43;;;28.33;;
18076;SDS011;9165;45.714;11.362;2022-11-03T10:30:15;58.20;;;27.43;;
18076;SDS011;9165;45.714;11.362;2022-11-03T10:32:42;53.67;;;27.93;;
18076;SDS011;9165;45.714;11.362;2022-11-03T10:37:50;106.93;;;62.13;;
18076;SDS011;9165;45.714;11.362;2022-11-03T10:40:32;54.63;;;31.30;;
18076;SDS011;9165;45.714;11.362;2022-11-03T10:43:01;52.27;;;28.13;;
18076;SDS011;9165;45.714;11.362;2022-11-03T10:45:28;56.77;;;28.27;;
18076;SDS011;9165;45.714;11.362;2022-11-03T10:47:58;49.30;;;27.47;;
18076;SDS011;9165;45.714;11.362;2022-11-03T10:50:25;54.63;;;28.93;;
18076;SDS011;9165;45.714;11.362;2022-11-03T10:52:52;49.50;;;28.93;;
18076;SDS011;9165;45.714;11.362;2022-11-03T10:55:20;54.93;;;29.47;;
18076;SDS011;9165;45.714;11.362;2022-11-03T10:57:47;53.13;;;29.37;;
18076;SDS011;9165;45.714;11.362;2022-11-03T11:00:16;51.53;;;27.97;;
18076;SDS011;9165;45.714;11.362;2022-11-03T11:02:44;47.90;;;28.57;;
18076;SDS011;9165;45.714;11.362;2022-11-03T11:05:12;47.77;;;27.37;;
18076;SDS011;9165;45.714;11.362;2022-11-03T11:07:39;46.60;;;27.13;;
18076;SDS011;9165;45.714;11.362;2022-11-03T11:10:07;46.70;;;27.50;;
18076;SDS011;9165;45.714;11.362;2022-11-03T11:12:36;45.10;;;27.07;;
18076;SDS011;9165;45.714;11.362;2022-11-03T11:15:07;55.37;;;27.37;;
18076;SDS011;9165;45.714;11.362;2022-11-03T11:17:51;48.47;;;28.57;;
18076;SDS011;9165;45.714;11.362;2022-11-03T11:20:28;49.87;;;28.07;;
18076;SDS011;9165;45.714;11.362;2022-11-03T11:22:55;51.20;;;30.67;;
18076;SDS011;9165;45.714;11.362;2022-11-03T11:28:26;47.50;;;27.87;;
18076;SDS011;9165;45.714;11.362;2022-11-03T11:30:56;55.13;;;28.17;;
18076;SDS011;9165;45.714;11.362;2022-11-03T11:33:25;48.50;;;26.93;;
18076;SDS011;9165;45.714;11.362;2022-11-03T11:36:01;53.67;;;29.17;;
18076;SDS011;9165;45.714;11.362;2022-11-03T11:38:51;48.57;;;30.03;;
18076;SDS011;9165;45.714;11.362;2022-11-03T11:41:19;58.60;;;31.57;;
18076;SDS011;9165;45.714;11.362;2022-11-03T11:43:46;45.73;;;26.90;;
18076;SDS011;9165;45.714;11.362;2022-11-03T11:46:32;48.30;;;28.47;;
18076;SDS011;9165;45.714;11.362;2022-11-03T11:49:26;53.97;;;29.83;;
18076;SDS011;9165;45.714;11.362;2022-11-03T11:51:53;45.93;;;26.37;;
18076;SDS011;9165;45.714;11.362;2022-11-03T11:54:26;49.83;;;27.97;;
18076;SDS011;9165;45.714;11.362;2022-11-03T11:56:52;51.03;;;28.30;;
18076;SDS011;9165;45.714;11.362;2022-11-03T11:59:21;51.63;;;26.63;;
18076;SDS011;9165;45.714;11.362;2022-11-03T12:01:48;43.10;;;25.57;;
18076;SDS011;9165;45.714;11.362;2022-11-03T12:04:18;45.07;;;26.50;;
18076;SDS011;9165;45.714;11.362;2022-11-03T12:06:45;40.17;;;24.23;;
18076;SDS011;9165;45.714;11.362;2022-11-03T12:09:16;42.93;;;25.40;;
18076;SDS011;9165;45.714;11.362;2022-11-03T12:11:44;41.43;;;24.57;;
18076;SDS011;9165;45.714;11.362;2022-11-03T12:14:24;47.67;;;24.57;;
18076;SDS011;9165;45.714;11.362;2022-11-03T12:16:51;43.33;;;24.00;;
18076;SDS011;9165;45.714;11.362;2022-11-03T12:19:38;45.63;;;26.07;;
18076;SDS011;9165;45.714;11.362;2022-11-03T12:22:06;41.17;;;24.37;;
18076;SDS011;9165;45.714;11.362;2022-11-03T12:24:35;42.37;;;25.47;;
18076;SDS011;9165;45.714;11.362;2022-11-03T12:27:02;39.90;;;25.00;;
18076;SDS011;9165;45.714;11.362;2022-11-03T12:29:29;41.50;;;22.90;;
18076;SDS011;9165;45.714;11.362;2022-11-03T12:31:56;38.53;;;22.33;;
18076;SDS011;9165;45.714;11.362;2022-11-03T12:34:22;37.83;;;22.27;;
18076;SDS011;9165;45.714;11.362;2022-11-03T12:36:50;41.37;;;24.30;;
18076;SDS011;9165;45.714;11.362;2022-11-03T12:39:17;42.77;;;24.90;;
18076;SDS011;9165;45.714;11.362;2022-11-03T12:41:44;38.13;;;24.73;;
18076;SDS011;9165;45.714;11.362;2022-11-03T12:44:10;37.57;;;21.77;;
18076;SDS011;9165;45.714;11.362;2022-11-03T12:46:37;32.90;;;20.97;;
18076;SDS011;9165;45.714;11.362;2022-11-03T12:49:03;35.70;;;20.30;;
18076;SDS011;9165;45.714;11.362;2022-11-03T12:51:30;28.50;;;16.77;;
18076;SDS011;9165;45.714;11.362;2022-11-03T12:53:58;34.03;;;19.97;;
18076;SDS011;9165;45.714;11.362;2022-11-03T12:56:25;30.73;;;19.70;;
18076;SDS011;9165;45.714;11.362;2022-11-03T12:58:51;41.93;;;20.33;;
18076;SDS011;9165;45.714;11.362;2022-11-03T13:01:18;39.40;;;21.83;;
18076;SDS011;9165;45.714;11.362;2022-11-03T13:03:44;40.00;;;22.67;;
18076;SDS011;9165;45.714;11.362;2022-11-03T13:06:11;40.03;;;22.53;;
18076;SDS011;9165;45.714;11.362;2022-11-03T13:08:38;35.37;;;21.27;;
18076;SDS011;9165;45.714;11.362;2022-11-03T13:11:07;39.93;;;22.80;;
18076;SDS011;9165;45.714;11.362;2022-11-03T13:13:54;37.37;;;22.23;;
18076;SDS011;9165;45.714;11.362;2022-11-03T13:16:21;42.97;;;23.50;;
18076;SDS011;9165;45.714;11.362;2022-11-03T13:18:47;41.83;;;22.93;;
18076;SDS011;9165;45.714;11.362;2022-11-03T13:21:14;36.30;;;22.33;;
18076;SDS011;9165;45.714;11.362;2022-11-03T13:23:41;39.07;;;22.40;;
18076;SDS011;9165;45.714;11.362;2022-11-03T13:26:09;30.43;;;18.00;;
18076;SDS011;9165;45.714;11.362;2022-11-03T13:28:35;30.07;;;16.60;;
18076;SDS011;9165;45.714;11.362;2022-11-03T13:31:02;25.53;;;14.10;;
18076;SDS011;9165;45.714;11.362;2022-11-03T13:33:28;38.00;;;15.73;;
18076;SDS011;9165;45.714;11.362;2022-11-03T13:35:55;24.83;;;15.50;;
18076;SDS011;9165;45.714;11.362;2022-11-03T13:38:21;22.83;;;14.63;;
18076;SDS011;9165;45.714;11.362;2022-11-03T13:40:48;25.23;;;15.77;;
18076;SDS011;9165;45.714;11.362;2022-11-03T13:43:16;32.83;;;16.80;;
18076;SDS011;9165;45.714;11.362;2022-11-03T13:45:43;29.50;;;17.23;;
18076;SDS011;9165;45.714;11.362;2022-11-03T13:48:09;31.10;;;17.97;;
18076;SDS011;9165;45.714;11.362;2022-11-03T13:50:36;32.60;;;19.83;;
18076;SDS011;9165;45.714;11.362;2022-11-03T13:53:02;32.43;;;20.20;;
18076;SDS011;9165;45.714;11.362;2022-11-03T13:55:29;34.27;;;20.53;;
18076;SDS011;9165;45.714;11.362;2022-11-03T13:57:55;39.57;;;23.73;;
18076;SDS011;9165;45.714;11.362;2022-11-03T14:00:24;40.60;;;22.53;;
18076;SDS011;9165;45.714;11.362;2022-11-03T14:02:50;58.43;;;31.23;;
18076;SDS011;9165;45.714;11.362;2022-11-03T14:05:17;60.23;;;33.57;;
18076;SDS011;9165;45.714;11.362;2022-11-03T14:07:43;59.77;;;32.53;;
18076;SDS011;9165;45.714;11.362;2022-11-03T14:10:10;70.17;;;35.30;;
18076;SDS011;9165;45.714;11.362;2022-11-03T14:12:36;66.90;;;38.17;;
18076;SDS011;9165;45.714;11.362;2022-11-03T14:15:03;40.10;;;22.57;;
18076;SDS011;9165;45.714;11.362;2022-11-03T14:17:31;47.07;;;27.40;;
18076;SDS011;9165;45.714;11.362;2022-11-03T14:19:58;60.07;;;35.47;;
18076;SDS011;9165;45.714;11.362;2022-11-03T14:22:24;68.93;;;36.97;;
18076;SDS011;9165;45.714;11.362;2022-11-03T14:24:51;67.00;;;34.73;;
18076;SDS011;9165;45.714;11.362;2022-11-03T14:27:18;63.90;;;34.87;;
18076;SDS011;9165;45.714;11.362;2022-11-03T14:29:45;58.20;;;34.47;;
18076;SDS011;9165;45.714;11.362;2022-11-03T14:32:13;61.83;;;35.30;;
18076;SDS011;9165;45.714;11.362;2022-11-03T14:34:41;61.60;;;33.97;;
18076;SDS011;9165;45.714;11.362;2022-11-03T14:37:09;64.77;;;34.87;;
18076;SDS011;9165;45.714;11.362;2022-11-03T14:39:37;60.40;;;34.23;;
18076;SDS011;9165;45.714;11.362;2022-11-03T14:42:04;60.40;;;35.00;;